Time;durP1;ratioP1;P1;durP2;ratioP2;P2;SDS_P1;SDS_P2;PMS_P1;PMS_P2;Temp;Humidity;BMP_temperature;BMP_pressure;BME280_temperature;BME280_humidity;BME280_pressure;Samples;Min_cycle;Max_cycle;Signal;HPM_P1;HPM_P2
2022/08/06 00:01:33;;;;;;;14.83;12.37;;;;;;;19.50;100.00;99915.94;1770600;81;21157;-79
2022/08/06 00:04:38;;;;;;;19.32;12.03;;;;;;;19.39;100.00;99916.27;1772131;81;21142;-79
2022/08/06 00:07:45;;;;;;;14.47;11.48;;;;;;;19.27;100.00;99910.44;1770628;81;21197;-79
2022/08/06 00:10:51;;;;;;;13.03;11.60;;;;;;;19.27;100.00;99915.98;1771426;81;21758;-79
2022/08/06 00:13:57;;;;;;;15.72;11.93;;;;;;;19.21;100.00;99915.03;1770481;81;21750;-79
2022/08/06 00:17:04;;;;;;;14.43;11.63;;;;;;;19.25;100.00;99916.78;1771792;81;21189;-79
2022/08/06 00:20:16;;;;;;;19.17;11.20;;;;;;;19.28;100.00;99918.50;1771940;81;21165;-79
2022/08/06 00:23:24;;;;;;;14.93;11.28;;;;;;;19.22;100.00;99912.55;1770809;81;21224;-79
2022/08/06 00:26:31;;;;;;;16.37;11.30;;;;;;;19.21;100.00;99905.88;1770810;81;21786;-79
2022/08/06 00:29:38;;;;;;;17.20;12.03;;;;;;;19.21;100.00;99912.80;1771705;81;21142;-79
2022/08/06 00:32:45;;;;;;;15.20;11.20;;;;;;;19.27;100.00;99902.95;1771376;81;21185;-79
2022/08/06 00:35:51;;;;;;;14.83;11.43;;;;;;;19.29;100.00;99908.25;1772214;81;21150;-79
2022/08/06 00:38:57;;;;;;;16.52;11.18;;;;;;;19.46;100.00;99914.73;1771960;81;21161;-79
2022/08/06 00:42:06;;;;;;;19.45;11.08;;;;;;;19.32;100.00;99914.16;1771039;81;21142;-79
2022/08/06 00:45:14;;;;;;;15.90;12.20;;;;;;;19.28;100.00;99910.72;1772065;81;21158;-78
2022/08/06 00:48:22;;;;;;;15.25;11.38;;;;;;;19.30;100.00;99919.66;1770937;81;21738;-79
2022/08/06 00:51:30;;;;;;;14.03;11.28;;;;;;;19.25;100.00;99915.39;1771515;81;21712;-79
2022/08/06 00:54:38;;;;;;;14.20;10.70;;;;;;;19.29;100.00;99917.95;1770481;81;21146;-79
2022/08/06 00:57:45;;;;;;;16.45;10.85;;;;;;;19.30;100.00;99909.95;1770662;81;21145;-79
2022/08/06 01:00:51;;;;;;;17.50;11.75;;;;;;;19.31;100.00;99913.02;1782378;80;21212;-79
2022/08/06 01:03:58;;;;;;;13.53;11.28;;;;;;;19.25;100.00;99906.53;1785075;80;21180;-79
2022/08/06 01:07:04;;;;;;;16.07;12.25;;;;;;;19.25;100.00;99909.84;1785691;80;21219;-80
2022/08/06 01:10:10;;;;;;;16.37;10.93;;;;;;;19.28;100.00;99907.95;1785753;80;21733;-79
2022/08/06 01:13:16;;;;;;;15.68;11.85;;;;;;;19.27;100.00;99909.05;1784678;80;21224;-80
2022/08/06 01:16:54;;;;;;;18.12;11.73;;;;;;;19.28;100.00;99905.18;1783661;80;21161;-79
2022/08/06 01:20:21;;;;;;;13.08;11.43;;;;;;;19.25;100.00;99912.63;1785868;80;21161;-79
2022/08/06 01:23:48;;;;;;;14.03;12.37;;;;;;;19.23;100.00;99911.45;1780704;80;21165;-80
2022/08/06 01:27:24;;;;;;;16.40;11.38;;;;;;;19.27;100.00;99910.44;1785269;80;21196;-80
2022/08/06 01:30:35;;;;;;;14.90;12.30;;;;;;;19.21;100.00;99908.09;1786025;80;21152;-79
2022/08/06 01:33:57;;;;;;;15.03;11.53;;;;;;;19.23;100.00;99914.77;1784584;80;21247;-79
2022/08/06 01:37:19;;;;;;;16.12;11.80;;;;;;;19.21;100.00;99919.73;1785676;80;21208;-79
2022/08/06 01:40:17;;;;;;;14.85;13.30;;;;;;;19.17;100.00;99919.36;1784142;80;21746;-79
2022/08/06 01:43:07;;;;;;;19.90;12.88;;;;;;;19.08;100.00;99921.66;1784591;80;21177;-79
2022/08/06 01:46:01;;;;;;;17.02;13.30;;;;;;;19.07;100.00;99924.13;1784251;80;21180;-80
2022/08/06 01:49:08;;;;;;;14.98;12.63;;;;;;;19.00;100.00;99917.84;1772579;80;21137;-79
2022/08/06 01:52:16;;;;;;;14.75;11.65;;;;;;;18.94;100.00;99914.66;1785598;80;21164;-79
2022/08/06 01:55:24;;;;;;;14.53;12.23;;;;;;;18.89;100.00;99913.16;1772449;80;21161;-79
2022/08/06 01:58:42;;;;;;;16.42;12.73;;;;;;;18.87;100.00;99911.19;1785103;80;21186;-79
2022/08/06 02:01:49;;;;;;;15.13;12.75;;;;;;;18.84;100.00;99908.88;1783718;80;21378;-79
2022/08/06 02:04:58;;;;;;;14.55;12.18;;;;;;;18.88;100.00;99908.70;1784960;80;21209;-79
2022/08/06 02:08:06;;;;;;;18.20;11.50;;;;;;;18.93;100.00;99909.37;1784968;80;21173;-79
2022/08/06 02:11:15;;;;;;;15.60;12.37;;;;;;;18.98;100.00;99913.10;1785199;80;21173;-79
2022/08/06 02:14:22;;;;;;;16.50;12.07;;;;;;;19.00;100.00;99908.15;1784911;80;21205;-79
2022/08/06 02:17:23;;;;;;;16.30;12.20;;;;;;;18.98;100.00;99904.79;1785498;80;21730;-79
2022/08/06 02:20:36;;;;;;;13.08;11.57;;;;;;;18.96;100.00;99905.59;1785090;80;21153;-79
2022/08/06 02:23:43;;;;;;;13.75;11.22;;;;;;;18.93;100.00;99903.83;1784240;80;21213;-79
2022/08/06 02:26:50;;;;;;;14.87;11.78;;;;;;;18.89;100.00;99909.00;1785663;80;21211;-79
2022/08/06 02:29:57;;;;;;;13.10;11.57;;;;;;;18.86;100.00;99906.70;1785652;80;21165;-79
2022/08/06 02:33:04;;;;;;;15.68;11.83;;;;;;;18.89;100.00;99907.62;1784848;80;21200;-79
2022/08/06 02:36:31;;;;;;;15.40;11.75;;;;;;;18.89;100.00;99911.78;1784522;80;21145;-79
2022/08/06 02:39:43;;;;;;;12.37;10.72;;;;;;;18.95;100.00;99908.58;1785730;80;21130;-79
2022/08/06 02:43:09;;;;;;;15.28;10.28;;;;;;;18.99;100.00;99905.62;1785087;80;21169;-79
2022/08/06 02:46:24;;;;;;;12.45;10.82;;;;;;;19.01;100.00;99910.41;1784174;80;21192;-79
2022/08/06 02:49:32;;;;;;;20.23;12.33;;;;;;;19.14;100.00;99913.75;1785737;80;21690;-79
2022/08/06 02:53:01;;;;;;;15.98;10.75;;;;;;;19.32;100.00;99911.93;1785709;80;21219;-79
2022/08/06 02:56:16;;;;;;;14.47;10.78;;;;;;;19.51;100.00;99915.39;1784346;80;21160;-79
2022/08/06 02:59:26;;;;;;;18.45;10.72;;;;;;;19.59;100.00;99916.41;1784594;80;21216;-79
2022/08/06 03:02:34;;;;;;;13.30;10.18;;;;;;;19.66;100.00;99912.42;1784128;80;21165;-79
2022/08/06 03:05:41;;;;;;;13.88;10.55;;;;;;;19.83;100.00;99911.12;1785794;80;21192;-79
2022/08/06 03:08:49;;;;;;;18.87;10.75;;;;;;;20.02;100.00;99908.15;1784373;80;21745;-80
2022/08/06 03:11:56;;;;;;;12.25;10.05;;;;;;;20.14;100.00;99908.41;1785617;80;21177;-79
2022/08/06 03:14:57;;;;;;;10.72;8.88;;;;;;;20.43;100.00;99906.98;1785572;80;21188;-79
2022/08/06 03:18:04;;;;;;;11.60;9.45;;;;;;;20.60;100.00;99904.23;1784820;80;21200;-79
2022/08/06 03:21:12;;;;;;;10.30;8.38;;;;;;;20.75;100.00;99908.67;1785847;80;21235;-78
2022/08/06 03:24:19;;;;;;;10.88;8.90;;;;;;;20.79;100.00;99913.16;1785777;80;21196;-78
2022/08/06 03:27:24;;;;;;;13.68;9.33;;;;;;;20.97;100.00;99910.67;1770819;80;21193;-79
2022/08/06 03:30:31;;;;;;;12.00;8.60;;;;;;;21.01;100.00;99916.86;1785149;80;21196;-79
2022/08/06 03:33:36;;;;;;;11.22;9.00;;;;;;;21.11;100.00;99910.60;1784438;80;21193;-79
2022/08/06 03:36:44;;;;;;;13.80;8.35;;;;;;;21.23;100.00;99911.91;1784535;80;21141;-79
2022/08/06 03:39:51;;;;;;;11.48;8.25;;;;;;;21.41;98.80;99918.59;1785671;80;21698;-79
2022/08/06 03:42:58;;;;;;;12.15;7.87;;;;;;;21.53;97.86;99912.91;1785696;80;21172;-79
2022/08/06 03:46:01;;;;;;;11.83;9.43;;;;;;;21.60;96.66;99915.80;1785406;80;21796;-79
2022/08/06 03:49:11;;;;;;;10.25;8.48;;;;;;;21.72;95.71;99914.81;1785589;80;21721;-78
2022/08/06 03:52:22;;;;;;;11.60;8.63;;;;;;;21.84;95.37;99912.75;1785337;80;21205;-79
2022/08/06 03:55:31;;;;;;;11.65;8.73;;;;;;;21.97;93.83;99917.89;1785921;80;21180;-79
2022/08/06 03:58:37;;;;;;;8.83;7.85;;;;;;;22.05;93.11;99917.98;1784363;80;21188;-79
2022/08/06 04:01:45;;;;;;;10.23;8.10;;;;;;;22.15;92.58;99918.97;1785715;80;21148;-78
2022/08/06 04:04:53;;;;;;;10.18;8.30;;;;;;;22.25;92.23;99910.43;1785628;80;21141;-79
2022/08/06 04:08:07;;;;;;;11.63;7.65;;;;;;;22.30;90.68;99916.92;1784982;80;21192;-79
2022/08/06 04:11:13;;;;;;;9.30;8.35;;;;;;;22.31;91.18;99912.19;1785783;80;21805;-79
2022/08/06 04:14:21;;;;;;;11.53;8.50;;;;;;;22.39;90.63;99911.13;1785457;80;21196;-79
2022/08/06 04:17:22;;;;;;;8.88;7.97;;;;;;;22.46;90.17;99912.33;1784283;80;21188;-80
2022/08/06 04:20:31;;;;;;;11.80;8.35;;;;;;;22.57;89.79;99911.86;1784239;80;21145;-80
2022/08/06 04:23:38;;;;;;;14.73;8.13;;;;;;;22.73;88.23;99910.06;1785975;80;21207;-79
2022/08/06 04:26:45;;;;;;;9.88;7.67;;;;;;;22.73;88.11;99914.25;1785163;80;21212;-79
2022/08/06 04:29:52;;;;;;;19.07;7.70;;;;;;;22.80;87.12;99916.24;1784485;80;21230;-80
2022/08/06 04:32:59;;;;;;;13.35;8.08;;;;;;;22.85;86.59;99907.36;1784221;80;21745;-79
2022/08/06 04:36:07;;;;;;;18.02;7.50;;;;;;;22.89;86.43;99906.31;1784740;80;21219;-78
2022/08/06 04:39:14;;;;;;;12.68;7.58;;;;;;;22.99;85.91;99911.96;1753254;82;21152;-79
2022/08/06 04:42:22;;;;;;;11.97;8.45;;;;;;;23.12;85.18;99911.50;1751638;82;21235;-79
2022/08/06 04:45:28;;;;;;;11.73;8.15;;;;;;;23.00;85.04;99912.23;1752980;82;21176;-79
2022/08/06 04:48:35;;;;;;;9.45;7.03;;;;;;;22.96;85.92;99923.67;1751825;82;21730;-80
2022/08/06 04:51:42;;;;;;;13.40;8.23;;;;;;;23.12;85.50;99918.47;1753663;80;21782;-80
2022/08/06 04:54:50;;;;;;;8.88;7.40;;;;;;;23.20;83.42;99917.14;1751564;82;21187;-80
2022/08/06 04:57:57;;;;;;;8.80;7.80;;;;;;;23.25;83.50;99928.34;1752510;80;21230;-80
2022/08/06 05:01:04;;;;;;;11.33;7.50;;;;;;;23.40;83.68;99926.19;1769607;80;21150;-79
2022/08/06 05:04:12;;;;;;;20.72;8.18;;;;;;;23.37;83.29;99934.53;1783251;80;21694;-79
2022/08/06 05:07:31;;;;;;;15.38;7.40;;;;;;;23.41;82.65;99935.67;1768312;80;21172;-79
2022/08/06 05:10:36;;;;;;;11.68;7.72;;;;;;;23.34;83.03;99935.65;1753123;82;21165;-80
2022/08/06 05:13:30;;;;;;;11.08;7.85;;;;;;;23.42;82.78;99932.33;1753343;82;21251;-79
2022/08/06 05:16:19;;;;;;;10.78;7.85;;;;;;;23.47;83.02;99928.16;1753608;82;21185;-79
2022/08/06 05:19:15;;;;;;;10.20;7.67;;;;;;;23.46;81.33;99934.30;1753452;82;21153;-80
2022/08/06 05:22:03;;;;;;;14.63;8.15;;;;;;;23.48;81.69;99936.84;1753303;80;21253;-80
2022/08/06 05:24:58;;;;;;;14.60;8.48;;;;;;;23.53;81.45;99935.48;1752131;82;21166;-80
2022/08/06 05:27:46;;;;;;;9.68;8.08;;;;;;;23.58;82.16;99931.31;1752550;82;21226;-80
2022/08/06 05:30:40;;;;;;;9.90;7.47;;;;;;;23.71;81.77;99939.77;1752940;80;21183;-79
2022/08/06 05:33:33;;;;;;;10.38;8.28;;;;;;;23.73;81.04;99934.77;1752268;82;21246;-79
2022/08/06 05:36:26;;;;;;;10.98;7.97;;;;;;;23.72;80.72;99933.09;1753689;82;21175;-79
2022/08/06 05:39:14;;;;;;;14.50;8.95;;;;;;;23.76;80.65;99934.77;1755941;80;21166;-79
2022/08/06 05:42:21;;;;;;;9.65;7.80;;;;;;;23.78;80.28;99927.80;1766323;80;21763;-79
2022/08/06 05:45:27;;;;;;;9.68;8.13;;;;;;;23.82;79.78;99922.52;1774444;80;21742;-80
2022/08/06 05:48:34;;;;;;;14.53;9.10;;;;;;;23.89;78.16;99925.88;1783386;80;21232;-80
2022/08/06 05:51:59;;;;;;;14.47;8.28;;;;;;;23.95;78.38;99933.19;1784554;80;21212;-81
2022/08/06 05:55:19;;;;;;;12.18;9.23;;;;;;;24.07;78.95;99933.77;1784522;80;21209;-80
2022/08/06 05:58:43;;;;;;;12.40;8.83;;;;;;;24.17;77.27;99939.38;1783133;80;21223;-81
2022/08/06 06:01:50;;;;;;;10.10;8.33;;;;;;;24.19;76.52;99934.38;1784559;80;21204;-81
2022/08/06 06:04:55;;;;;;;12.47;9.20;;;;;;;24.32;76.82;99944.73;1782769;80;21487;-80
2022/08/06 06:08:04;;;;;;;10.18;8.75;;;;;;;24.28;76.02;99933.81;1770653;81;21165;-80
2022/08/06 06:11:13;;;;;;;11.25;8.80;;;;;;;24.42;76.70;99924.69;1766680;81;21164;-80
2022/08/06 06:14:43;;;;;;;10.70;8.95;;;;;;;24.61;75.76;99929.74;1776835;80;21137;-80
2022/08/06 06:18:32;;;;;;;12.70;9.00;;;;;;;24.68;74.74;99931.69;1740960;81;21143;-80
2022/08/06 06:22:02;;;;;;;11.83;9.58;;;;;;;24.73;74.67;99935.32;1756054;81;21167;-81
2022/08/06 06:25:15;;;;;;;10.82;9.20;;;;;;;24.84;73.29;99943.18;1754319;81;21153;-82
2022/08/06 06:28:44;;;;;;;15.13;9.60;;;;;;;24.90;73.63;99935.62;1753033;81;21149;-81
2022/08/06 06:32:01;;;;;;;18.30;10.60;;;;;;;25.11;72.87;99940.09;1744482;81;21182;-81
2022/08/06 06:35:25;;;;;;;13.15;9.90;;;;;;;25.20;72.67;99943.17;1745990;81;21169;-80
2022/08/06 06:39:01;;;;;;;14.45;9.85;;;;;;;25.16;71.74;99941.48;1741860;81;21221;-81
2022/08/06 06:42:17;;;;;;;13.20;9.80;;;;;;;25.15;72.32;99934.22;1705678;84;21236;-81
2022/08/06 06:45:35;;;;;;;13.15;10.13;;;;;;;25.18;72.88;99938.43;1741581;82;21165;-81
2022/08/06 06:48:57;;;;;;;16.25;10.65;;;;;;;25.34;72.05;99935.03;1704647;83;21252;-81
2022/08/06 06:52:05;;;;;;;10.98;9.58;;;;;;;25.40;72.55;99938.09;1759305;81;21226;-80
2022/08/06 06:55:40;;;;;;;12.95;9.10;;;;;;;25.56;72.13;99929.11;1771845;81;21152;-80
2022/08/06 06:59:05;;;;;;;15.43;9.75;;;;;;;25.71;70.47;99932.69;1769670;80;21173;-81
2022/08/06 07:02:12;;;;;;;11.68;9.38;;;;;;;25.74;71.57;99943.33;1765725;81;21173;-81
2022/08/06 07:05:19;;;;;;;11.22;8.93;;;;;;;25.80;69.66;99946.98;1768529;81;21189;-81
2022/08/06 07:08:28;;;;;;;11.97;9.30;;;;;;;25.88;71.68;99938.55;1783376;80;21734;-81
2022/08/06 07:11:35;;;;;;;14.13;8.73;;;;;;;26.01;70.56;99946.31;1767615;79;21188;-81
2022/08/06 07:14:43;;;;;;;10.00;8.68;;;;;;;26.03;68.19;99941.28;1746318;82;21162;-80
2022/08/06 07:17:53;;;;;;;11.10;9.33;;;;;;;25.99;69.23;99934.00;1736461;82;21189;-81
2022/08/06 07:21:00;;;;;;;14.95;8.58;;;;;;;25.99;69.78;99943.81;1737403;82;21231;-81
2022/08/06 07:24:00;;;;;;;16.45;9.18;;;;;;;25.96;69.19;99946.34;1721882;82;21738;-81
2022/08/06 07:27:06;;;;;;;15.53;9.88;;;;;;;26.04;68.75;99950.52;1738119;82;21727;-81
2022/08/06 07:30:08;;;;;;;11.70;8.30;;;;;;;26.00;68.92;99945.48;1753765;81;21160;-81
2022/08/06 07:33:01;;;;;;;12.58;10.05;;;;;;;26.04;71.69;99941.55;1751155;82;21783;-81
2022/08/06 07:36:08;;;;;;;13.70;9.38;;;;;;;26.00;71.37;99934.27;1752453;82;21156;-81
2022/08/06 07:39:17;;;;;;;11.50;8.78;;;;;;;26.36;69.91;99937.45;1750679;82;21178;-81
2022/08/06 07:42:24;;;;;;;16.95;9.78;;;;;;;26.36;69.80;99930.45;1753078;82;21194;-81
2022/08/06 07:45:31;;;;;;;16.52;9.88;;;;;;;26.44;69.61;99927.91;1751294;82;21176;-81
2022/08/06 07:48:48;;;;;;;14.05;10.23;;;;;;;26.45;69.29;99928.74;1750113;82;21254;-81
2022/08/06 07:51:54;;;;;;;15.30;9.45;;;;;;;26.48;70.08;99940.76;1750966;82;21234;-81
2022/08/06 07:55:02;;;;;;;15.32;9.05;;;;;;;26.62;71.15;99947.95;1739730;82;21195;-81
2022/08/06 07:58:08;;;;;;;11.50;8.45;;;;;;;26.70;70.28;99943.97;1736202;82;21770;-80
2022/08/06 08:01:15;;;;;;;13.83;10.10;;;;;;;26.72;68.78;99940.86;1716958;82;21170;-80
2022/08/06 08:07:46;;;;;;;18.80;9.58;;;;;;;26.72;69.22;99945.08;1728934;82;21202;-81
2022/08/06 08:10:54;;;;;;;13.88;8.98;;;;;;;26.83;67.57;99941.64;1770010;81;21240;-81
2022/08/06 08:14:03;;;;;;;14.45;9.53;;;;;;;26.80;68.16;99944.45;1757247;81;21237;-80
2022/08/06 08:17:10;;;;;;;12.90;9.10;;;;;;;26.80;68.70;99950.06;1734239;82;21268;-81
2022/08/06 08:20:16;;;;;;;12.80;9.25;;;;;;;26.88;68.44;99936.83;1767483;81;21221;-81
2022/08/06 08:23:24;;;;;;;10.98;8.53;;;;;;;26.87;68.61;99946.95;1765948;81;21224;-81
2022/08/06 08:26:32;;;;;;;12.50;10.00;;;;;;;26.85;68.66;99936.00;1766357;81;21248;-81
2022/08/06 08:29:38;;;;;;;10.80;8.85;;;;;;;26.96;67.11;99934.80;1763965;80;21181;-82
2022/08/06 08:32:46;;;;;;;16.95;9.50;;;;;;;27.05;67.91;99935.55;1765373;81;21176;-81
2022/08/06 08:35:56;;;;;;;18.48;9.25;;;;;;;27.09;67.36;99938.06;1733595;82;21699;-80
2022/08/06 08:39:03;;;;;;;11.05;9.05;;;;;;;27.15;68.18;99939.15;1764483;81;21177;-81
2022/08/06 08:42:19;;;;;;;12.25;9.03;;;;;;;27.24;66.96;99943.53;1772019;81;21229;-81
2022/08/06 08:45:25;;;;;;;17.17;9.03;;;;;;;27.32;67.72;99939.25;1770005;81;21150;-81
2022/08/06 08:48:32;;;;;;;14.98;8.65;;;;;;;27.43;66.92;99933.79;1726625;83;21224;-81
2022/08/06 08:51:39;;;;;;;14.70;8.63;;;;;;;27.47;65.31;99938.52;1770221;81;21149;-81
2022/08/06 08:54:33;;;;;;;11.05;7.87;;;;;;;27.53;65.68;99935.11;1744144;81;21157;-81
2022/08/06 08:57:22;;;;;;;11.50;8.33;;;;;;;27.67;66.36;99940.28;1703499;83;21196;-82
2022/08/06 09:00:28;;;;;;;16.60;8.10;;;;;;;27.84;64.84;99935.59;1704524;84;21165;-80
2022/08/06 09:03:36;;;;;;;11.53;7.58;;;;;;;27.94;64.00;99935.47;1750880;80;21176;-81
2022/08/06 09:06:44;;;;;;;13.77;8.03;;;;;;;28.02;62.92;99933.97;1782024;80;21161;-82
2022/08/06 09:09:50;;;;;;;18.65;8.40;;;;;;;28.08;63.50;99939.78;1770953;81;21182;-81
2022/08/06 09:12:57;;;;;;;11.12;7.47;;;;;;;28.17;64.15;99940.79;1771359;81;21193;-82
2022/08/06 09:16:04;;;;;;;9.93;7.22;;;;;;;28.27;61.89;99938.41;1771598;81;21587;-81
2022/08/06 09:19:11;;;;;;;9.85;6.90;;;;;;;28.39;61.61;99939.41;1770766;81;21158;-82
2022/08/06 09:22:17;;;;;;;9.28;5.65;;;;;;;28.50;60.44;99938.10;1734916;82;21754;-82
2022/08/06 09:25:43;;;;;;;9.90;5.53;;;;;;;28.51;57.59;99943.45;1772044;81;21161;-81
2022/08/06 09:28:51;;;;;;;11.35;5.45;;;;;;;28.55;57.91;99944.22;1769903;81;21200;-82
2022/08/06 09:31:56;;;;;;;10.10;6.15;;;;;;;28.56;55.69;99941.13;1733878;82;21153;-82
2022/08/06 09:35:03;;;;;;;8.13;5.78;;;;;;;28.56;55.69;99941.13;1760349;81;21268;-81
2022/08/06 09:38:13;;;;;;;8.88;5.83;;;;;;;28.52;55.63;99938.66;1775745;80;21168;-81
2022/08/06 09:41:19;;;;;;;8.65;4.97;;;;;;;28.52;55.63;99938.66;1787183;80;21161;-81
2022/08/06 09:44:27;;;;;;;9.35;5.45;;;;;;;28.56;56.81;99946.75;1764903;80;21209;-81
2022/08/06 09:47:34;;;;;;;7.20;5.00;;;;;;;28.66;55.63;99949.98;1704815;83;21180;-81
2022/08/06 09:50:50;;;;;;;7.67;5.35;;;;;;;28.88;54.60;99951.56;1771124;81;21236;-81
2022/08/06 09:54:05;;;;;;;7.15;5.47;;;;;;;28.88;54.60;99951.56;1728734;82;21192;-81
2022/08/06 09:57:13;;;;;;;7.53;5.58;;;;;;;28.97;53.64;99954.55;1741242;81;21793;-81
2022/08/06 10:00:34;;;;;;;12.85;4.80;;;;;;;29.00;53.74;99956.77;1705028;84;21176;-82
2022/08/06 10:03:47;;;;;;;6.70;4.42;;;;;;;29.00;51.68;99957.59;1704605;84;21212;-81
2022/08/06 10:07:09;;;;;;;8.28;4.70;;;;;;;29.05;50.83;99965.12;1745350;81;21218;-80
2022/08/06 10:10:15;;;;;;;8.15;4.22;;;;;;;29.05;50.59;99958.08;1744802;82;21320;-81
2022/08/06 10:13:20;;;;;;;7.75;4.50;;;;;;;29.08;50.54;99955.20;1748632;82;21195;-82
2022/08/06 10:16:33;;;;;;;6.97;4.60;;;;;;;29.16;51.03;99959.56;1761968;80;22105;-82
2022/08/06 10:19:37;;;;;;;5.78;4.35;;;;;;;29.25;51.12;99963.92;1780260;80;21169;-81
2022/08/06 10:22:46;;;;;;;10.48;5.03;;;;;;;29.26;51.45;99962.20;1778847;80;21765;-82
2022/08/06 10:25:53;;;;;;;8.98;4.87;;;;;;;29.36;49.54;99954.70;1774462;80;21736;-82
2022/08/06 10:29:01;;;;;;;10.85;4.37;;;;;;;29.36;49.54;99954.70;1778326;80;21172;-80
2022/08/06 10:32:07;;;;;;;7.10;4.37;;;;;;;29.42;50.80;99956.30;1764499;80;21758;-80
2022/08/06 10:35:13;;;;;;;10.15;3.80;;;;;;;29.43;50.24;99955.16;1770167;80;21142;-81
2022/08/06 10:38:23;;;;;;;8.40;4.28;;;;;;;29.43;50.35;99957.97;1778458;80;21208;-80
2022/08/06 10:41:31;;;;;;;14.40;4.30;;;;;;;29.50;48.49;99956.97;1732887;82;21212;-80
2022/08/06 10:44:38;;;;;;;6.95;4.00;;;;;;;29.56;48.88;99951.55;1710370;83;21250;-80
2022/08/06 10:47:46;;;;;;;5.78;3.70;;;;;;;29.56;48.88;99951.55;1706270;84;21204;-80
2022/08/06 10:50:53;;;;;;;6.30;4.05;;;;;;;29.64;49.46;99952.25;1694959;84;21477;-80
2022/08/06 10:54:00;;;;;;;11.50;4.17;;;;;;;29.75;47.81;99945.83;1719842;83;21185;-79
2022/08/06 10:57:08;;;;;;;5.60;3.87;;;;;;;29.89;47.71;99950.06;1694512;83;21821;-80
2022/08/06 11:00:09;;;;;;;8.28;4.50;;;;;;;29.94;46.68;99945.72;1705656;83;21182;-81
2022/08/06 11:03:35;;;;;;;4.28;3.65;;;;;;;29.94;45.82;99952.77;1703001;84;21223;-80
2022/08/06 11:07:27;;;;;;;6.30;3.75;;;;;;;29.93;44.49;99958.16;1705306;83;21192;-80
2022/08/06 11:11:05;;;;;;;7.37;4.08;;;;;;;30.01;44.47;99943.30;1721218;83;21661;-80
2022/08/06 11:14:16;;;;;;;6.55;4.20;;;;;;;30.01;44.47;99943.30;1721124;83;21165;-81
2022/08/06 11:17:25;;;;;;;9.03;3.98;;;;;;;29.98;44.23;99941.96;1694053;83;21797;-80
2022/08/06 11:20:45;;;;;;;8.15;4.10;;;;;;;29.99;44.99;99939.97;1690821;83;21196;-80
2022/08/06 11:23:51;;;;;;;7.78;4.00;;;;;;;30.01;45.35;99940.48;1733196;82;21185;-80
2022/08/06 11:26:58;;;;;;;6.40;4.25;;;;;;;30.03;45.56;99939.03;1697499;84;21197;-80
2022/08/06 11:30:17;;;;;;;5.80;4.42;;;;;;;30.05;45.09;99932.48;1741806;81;21165;-80
2022/08/06 11:33:44;;;;;;;4.47;3.98;;;;;;;30.09;45.98;99934.11;1703250;84;21248;-81
2022/08/06 11:36:59;;;;;;;5.50;4.42;;;;;;;30.15;46.16;99934.28;1746554;81;21249;-80
2022/08/06 11:40:14;;;;;;;6.00;3.95;;;;;;;30.11;45.49;99940.25;1771337;80;21747;-80
2022/08/06 11:43:22;;;;;;;6.00;3.77;;;;;;;30.11;45.73;99946.47;1766518;81;21181;-80
2022/08/06 11:46:36;;;;;;;9.95;4.12;;;;;;;30.13;45.65;99948.42;1746777;81;21122;-80
2022/08/06 11:49:52;;;;;;;6.53;4.10;;;;;;;30.12;45.33;99936.31;1740542;82;21201;-80
2022/08/06 11:53:00;;;;;;;6.70;3.80;;;;;;;30.08;44.89;99929.62;1738732;82;21193;-80
2022/08/06 11:56:12;;;;;;;7.20;3.83;;;;;;;30.12;45.28;99939.70;1740170;82;21161;-80
2022/08/06 11:59:21;;;;;;;9.33;4.30;;;;;;;30.13;45.18;99931.50;1740507;82;21161;-81
2022/08/06 12:02:54;;;;;;;7.00;4.10;;;;;;;30.17;44.67;99926.36;1740806;82;21173;-80
2022/08/06 12:06:00;;;;;;;6.62;3.92;;;;;;;30.18;44.18;99932.25;1740084;82;21761;-80
2022/08/06 12:09:18;;;;;;;10.90;4.33;;;;;;;30.21;44.26;99915.28;1746394;81;21301;-79
2022/08/06 12:12:39;;;;;;;5.42;3.77;;;;;;;30.27;43.37;99928.94;1770675;80;21225;-80
2022/08/06 12:15:47;;;;;;;7.67;3.47;;;;;;;30.23;43.73;99920.02;1770341;81;21158;-79
2022/08/06 12:18:54;;;;;;;6.90;3.72;;;;;;;30.23;43.36;99924.25;1754975;80;21197;-80
2022/08/06 12:22:01;;;;;;;5.28;3.45;;;;;;;30.26;43.55;99930.10;1739561;81;21745;-80
2022/08/06 12:25:07;;;;;;;5.80;3.62;;;;;;;30.20;43.23;99925.70;1762600;81;21142;-80
2022/08/06 12:28:15;;;;;;;7.45;3.95;;;;;;;30.18;44.01;99913.08;1755229;81;21213;-79
2022/08/06 12:31:24;;;;;;;5.67;3.40;;;;;;;30.19;43.51;99916.98;1744226;81;21156;-79
2022/08/06 12:34:34;;;;;;;6.05;3.30;;;;;;;30.25;42.89;99912.92;1754276;80;21256;-80
2022/08/06 12:37:47;;;;;;;5.45;3.05;;;;;;;30.28;42.27;99910.86;1770040;81;21190;-80
2022/08/06 12:41:12;;;;;;;10.80;3.50;;;;;;;30.33;42.88;99913.31;1770474;81;21750;-80
2022/08/06 12:44:19;;;;;;;6.85;3.17;;;;;;;30.33;43.38;99904.27;1720019;82;21160;-80
2022/08/06 12:47:28;;;;;;;5.00;2.77;;;;;;;30.40;42.37;99903.84;1770148;81;21224;-81
2022/08/06 12:50:36;;;;;;;5.47;2.62;;;;;;;30.42;41.05;99900.12;1769255;81;21237;-80
2022/08/06 12:53:46;;;;;;;10.13;2.60;;;;;;;30.47;41.10;99910.70;1767058;81;21220;-80
2022/08/06 12:56:52;;;;;;;5.70;2.65;;;;;;;30.47;41.11;99908.45;1754515;81;21240;-80
2022/08/06 13:00:00;;;;;;;6.03;3.20;;;;;;;30.47;40.06;99902.81;1766018;81;22082;-80
2022/08/06 13:03:07;;;;;;;4.85;2.27;;;;;;;30.49;39.64;99906.17;1697737;82;21204;-80
2022/08/06 13:06:14;;;;;;;4.40;2.55;;;;;;;30.42;40.44;99905.76;1739571;82;21460;-80
2022/08/06 13:09:22;;;;;;;5.12;3.12;;;;;;;30.37;40.05;99899.66;1714732;83;21826;-81
2022/08/06 13:12:29;;;;;;;7.10;2.90;;;;;;;30.41;40.96;99902.69;1771728;80;21794;-80
2022/08/06 13:15:37;;;;;;;5.80;2.98;;;;;;;30.39;40.65;99895.93;1784765;80;21208;-80
2022/08/06 13:18:46;;;;;;;4.37;2.55;;;;;;;30.42;40.36;99902.36;1784571;80;21738;-80
2022/08/06 13:21:54;;;;;;;3.52;2.70;;;;;;;30.42;40.68;99891.66;1785127;80;21141;-80
2022/08/06 13:25:20;;;;;;;3.00;2.70;;;;;;;30.49;39.65;99894.88;1783631;80;21204;-80
2022/08/06 13:28:30;;;;;;;9.30;2.98;;;;;;;30.47;40.17;99892.94;1784203;80;21224;-80
2022/08/06 13:31:36;;;;;;;6.03;2.87;;;;;;;30.47;40.71;99894.34;1784681;80;21164;-80
2022/08/06 13:34:58;;;;;;;5.17;2.90;;;;;;;30.49;39.71;99899.11;1784305;80;21781;-80
2022/08/06 13:38:04;;;;;;;4.53;2.92;;;;;;;30.53;39.20;99897.30;1785194;80;21760;-80
2022/08/06 13:41:13;;;;;;;6.47;2.90;;;;;;;30.47;39.94;99901.41;1785442;80;21133;-80
2022/08/06 13:44:38;;;;;;;7.37;3.20;;;;;;;30.40;39.29;99893.39;1785265;80;21147;-82
2022/08/06 13:47:49;;;;;;;5.17;2.80;;;;;;;30.42;39.09;99891.07;1780452;80;21156;-82
2022/08/06 13:50:54;;;;;;;6.22;2.92;;;;;;;30.45;39.66;99889.61;1754683;80;21232;-81
2022/08/06 13:54:00;;;;;;;5.42;2.75;;;;;;;30.46;39.59;99890.70;1776036;80;21204;-81
2022/08/06 13:57:08;;;;;;;7.65;3.50;;;;;;;30.36;40.96;99889.53;1776769;80;21197;-81
2022/08/06 14:00:16;;;;;;;6.03;3.20;;;;;;;30.54;39.86;99901.81;1784398;80;21777;-81
2022/08/06 14:03:23;;;;;;;3.92;2.90;;;;;;;30.47;39.67;99893.77;1784114;80;21192;-81
2022/08/06 14:06:29;;;;;;;3.15;2.00;;;;;;;30.50;38.39;99893.72;1784933;80;21711;-80
2022/08/06 14:09:39;;;;;;;5.33;2.90;;;;;;;30.50;38.39;99893.72;1784672;80;21200;-82
2022/08/06 14:16:11;;;;;;;6.55;3.00;;;;;;;30.47;39.10;99895.76;1744690;82;21168;-81
2022/08/06 14:19:18;;;;;;;7.97;2.90;;;;;;;30.52;38.73;99892.23;1743337;82;21737;-81
2022/08/06 14:22:25;;;;;;;6.33;2.98;;;;;;;30.46;39.16;99890.70;1737371;82;21209;-80
2022/08/06 14:25:31;;;;;;;5.65;3.20;;;;;;;30.48;39.24;99891.78;1740998;82;21259;-82
2022/08/06 14:28:39;;;;;;;8.38;2.90;;;;;;;30.49;38.87;99889.23;1742432;82;21208;-82
2022/08/06 14:31:45;;;;;;;6.25;2.95;;;;;;;30.44;39.21;99885.10;1743958;82;21167;-82
2022/08/06 14:34:55;;;;;;;6.78;3.02;;;;;;;30.39;40.23;99893.69;1742783;82;21188;-81
2022/08/06 14:38:03;;;;;;;5.72;3.08;;;;;;;30.36;39.70;99898.58;1736932;82;21801;-81
2022/08/06 14:47:57;;;;;;;4.80;2.65;;;;;;;30.46;39.78;99899.74;1739117;82;21225;-81
2022/08/06 14:51:04;;;;;;;4.20;3.05;;;;;;;30.43;40.35;99901.20;1739276;82;21168;-81
2022/08/06 14:54:11;;;;;;;4.85;2.90;;;;;;;30.45;39.95;99906.55;1739222;82;21245;-82